Las Vegas, Nevada
Current Conditions -  °F | °C
As of 2:56 AM on Thursday 23 Oct 2014 (Local Time) from KLAS Reporting Station
Few Clouds Few Clouds  
Wind Chill: 64°   Ceiling: Unl
Heat Index: 64°   Visibility: 10mi
Dew Point: 30°   Wind: 7mph
Humidity: 28%   Direction: 200°SSW
Pressure: 30"   Gusts: NA
Location:  36.17°N, 115.13°W
Report Text: KLAS 230956Z 20006KT 10SM FEW250 18/M01 A3000 RMK AO2 SLP140 T01781011
Loading
Personal Weather Stations






























Interactive Weather Map New forecast layout! Learn more

10-Day Weather Forecast

Advertisements
Track Severe Weather on mobile